sensor_id;sensor_type;location;lat;lon;timestamp;P1;durP1;ratioP1;P2;durP2;ratioP2
17235;SDS011;8734;59.272;17.780;2023-02-11T00:01:12;2.27;;;1.03;;
17235;SDS011;8734;59.272;17.780;2023-02-11T00:03:46;1.40;;;1.00;;
17235;SDS011;8734;59.272;17.780;2023-02-11T00:06:15;1.30;;;0.80;;
17235;SDS011;8734;59.272;17.780;2023-02-11T00:08:43;6.33;;;0.73;;
17235;SDS011;8734;59.272;17.780;2023-02-11T00:11:13;4.80;;;1.00;;
17235;SDS011;8734;59.272;17.780;2023-02-11T00:13:43;4.07;;;0.87;;
17235;SDS011;8734;59.272;17.780;2023-02-11T00:16:13;1.70;;;0.93;;
17235;SDS011;8734;59.272;17.780;2023-02-11T00:18:43;4.20;;;1.40;;
17235;SDS011;8734;59.272;17.780;2023-02-11T00:21:12;5.13;;;1.03;;
17235;SDS011;8734;59.272;17.780;2023-02-11T00:23:43;4.17;;;1.40;;
17235;SDS011;8734;59.272;17.780;2023-02-11T00:26:12;7.10;;;1.37;;
17235;SDS011;8734;59.272;17.780;2023-02-11T00:28:41;3.90;;;1.30;;
17235;SDS011;8734;59.272;17.780;2023-02-11T00:31:09;5.30;;;0.80;;
17235;SDS011;8734;59.272;17.780;2023-02-11T00:33:40;6.60;;;1.00;;
17235;SDS011;8734;59.272;17.780;2023-02-11T00:36:11;3.60;;;1.50;;
17235;SDS011;8734;59.272;17.780;2023-02-11T00:38:41;4.57;;;1.20;;
17235;SDS011;8734;59.272;17.780;2023-02-11T00:41:10;2.83;;;1.30;;
17235;SDS011;8734;59.272;17.780;2023-02-11T00:43:39;4.37;;;1.27;;
17235;SDS011;8734;59.272;17.780;2023-02-11T00:46:08;6.57;;;1.40;;
17235;SDS011;8734;59.272;17.780;2023-02-11T00:48:36;4.97;;;1.30;;
17235;SDS011;8734;59.272;17.780;2023-02-11T00:51:07;2.53;;;1.17;;
17235;SDS011;8734;59.272;17.780;2023-02-11T00:53:36;3.30;;;1.10;;
17235;SDS011;8734;59.272;17.780;2023-02-11T00:56:04;6.87;;;1.60;;
17235;SDS011;8734;59.272;17.780;2023-02-11T00:58:33;4.17;;;1.30;;
17235;SDS011;8734;59.272;17.780;2023-02-11T01:01:02;9.40;;;1.70;;
17235;SDS011;8734;59.272;17.780;2023-02-11T01:03:30;9.20;;;1.43;;
17235;SDS011;8734;59.272;17.780;2023-02-11T01:05:59;9.03;;;1.33;;
17235;SDS011;8734;59.272;17.780;2023-02-11T01:08:29;8.17;;;1.27;;
17235;SDS011;8734;59.272;17.780;2023-02-11T01:10:58;5.17;;;1.10;;
17235;SDS011;8734;59.272;17.780;2023-02-11T01:13:30;7.87;;;1.13;;
17235;SDS011;8734;59.272;17.780;2023-02-11T01:15:59;4.97;;;1.63;;
17235;SDS011;8734;59.272;17.780;2023-02-11T01:18:28;3.13;;;1.40;;
17235;SDS011;8734;59.272;17.780;2023-02-11T01:20:57;8.23;;;1.70;;
17235;SDS011;8734;59.272;17.780;2023-02-11T01:23:25;6.47;;;1.23;;
17235;SDS011;8734;59.272;17.780;2023-02-11T01:25:55;7.50;;;1.60;;
17235;SDS011;8734;59.272;17.780;2023-02-11T01:28:24;6.97;;;1.53;;
17235;SDS011;8734;59.272;17.780;2023-02-11T01:30:54;7.37;;;1.70;;
17235;SDS011;8734;59.272;17.780;2023-02-11T01:33:23;7.77;;;1.67;;
17235;SDS011;8734;59.272;17.780;2023-02-11T01:35:51;9.23;;;1.90;;
17235;SDS011;8734;59.272;17.780;2023-02-11T01:38:20;6.53;;;1.73;;
17235;SDS011;8734;59.272;17.780;2023-02-11T01:40:51;13.40;;;2.07;;
17235;SDS011;8734;59.272;17.780;2023-02-11T01:43:23;9.03;;;1.77;;
17235;SDS011;8734;59.272;17.780;2023-02-11T01:45:57;16.37;;;2.30;;
17235;SDS011;8734;59.272;17.780;2023-02-11T01:48:29;10.30;;;1.90;;
17235;SDS011;8734;59.272;17.780;2023-02-11T01:51:01;6.20;;;1.73;;
17235;SDS011;8734;59.272;17.780;2023-02-11T01:53:33;12.63;;;2.57;;
17235;SDS011;8734;59.272;17.780;2023-02-11T01:56:22;16.73;;;1.93;;
17235;SDS011;8734;59.272;17.780;2023-02-11T01:59:14;16.07;;;2.27;;
17235;SDS011;8734;59.272;17.780;2023-02-11T02:01:45;27.50;;;2.80;;
17235;SDS011;8734;59.272;17.780;2023-02-11T02:04:18;27.57;;;2.80;;
17235;SDS011;8734;59.272;17.780;2023-02-11T02:06:48;21.70;;;2.73;;
17235;SDS011;8734;59.272;17.780;2023-02-11T02:09:19;28.83;;;2.53;;
17235;SDS011;8734;59.272;17.780;2023-02-11T02:11:52;19.67;;;2.73;;
17235;SDS011;8734;59.272;17.780;2023-02-11T02:14:22;21.23;;;2.90;;
17235;SDS011;8734;59.272;17.780;2023-02-11T02:16:51;18.13;;;2.97;;
17235;SDS011;8734;59.272;17.780;2023-02-11T02:25:18;25.93;;;3.23;;
17235;SDS011;8734;59.272;17.780;2023-02-11T02:28:20;18.43;;;3.33;;
17235;SDS011;8734;59.272;17.780;2023-02-11T02:31:19;23.33;;;2.83;;
17235;SDS011;8734;59.272;17.780;2023-02-11T02:34:05;24.10;;;2.40;;
17235;SDS011;8734;59.272;17.780;2023-02-11T02:36:41;30.83;;;3.37;;
17235;SDS011;8734;59.272;17.780;2023-02-11T02:39:14;19.83;;;2.97;;
17235;SDS011;8734;59.272;17.780;2023-02-11T02:41:47;36.37;;;3.53;;
17235;SDS011;8734;59.272;17.780;2023-02-11T02:44:17;25.50;;;3.23;;
17235;SDS011;8734;59.272;17.780;2023-02-11T02:46:46;18.13;;;3.30;;
17235;SDS011;8734;59.272;17.780;2023-02-11T02:49:16;20.87;;;2.67;;
17235;SDS011;8734;59.272;17.780;2023-02-11T02:51:49;23.97;;;3.40;;
17235;SDS011;8734;59.272;17.780;2023-02-11T02:54:40;35.20;;;3.80;;
17235;SDS011;8734;59.272;17.780;2023-02-11T02:57:31;16.83;;;2.87;;
17235;SDS011;8734;59.272;17.780;2023-02-11T03:00:13;31.77;;;2.93;;
17235;SDS011;8734;59.272;17.780;2023-02-11T03:02:52;25.67;;;2.77;;
17235;SDS011;8734;59.272;17.780;2023-02-11T03:05:35;29.63;;;3.03;;
17235;SDS011;8734;59.272;17.780;2023-02-11T03:08:11;30.80;;;3.30;;
17235;SDS011;8734;59.272;17.780;2023-02-11T03:10:45;31.00;;;3.53;;
17235;SDS011;8734;59.272;17.780;2023-02-11T03:13:17;30.27;;;3.23;;
17235;SDS011;8734;59.272;17.780;2023-02-11T03:15:49;22.27;;;3.47;;
17235;SDS011;8734;59.272;17.780;2023-02-11T03:18:21;28.53;;;3.00;;
17235;SDS011;8734;59.272;17.780;2023-02-11T03:20:54;24.73;;;3.67;;
17235;SDS011;8734;59.272;17.780;2023-02-11T03:23:25;26.33;;;3.70;;
17235;SDS011;8734;59.272;17.780;2023-02-11T03:25:57;25.17;;;3.53;;
17235;SDS011;8734;59.272;17.780;2023-02-11T03:28:30;32.77;;;4.57;;
17235;SDS011;8734;59.272;17.780;2023-02-11T03:31:06;23.07;;;4.13;;
17235;SDS011;8734;59.272;17.780;2023-02-11T03:33:40;28.60;;;4.10;;
17235;SDS011;8734;59.272;17.780;2023-02-11T03:36:18;31.93;;;4.97;;
17235;SDS011;8734;59.272;17.780;2023-02-11T03:38:54;33.03;;;4.00;;
17235;SDS011;8734;59.272;17.780;2023-02-11T03:41:25;32.30;;;4.17;;
17235;SDS011;8734;59.272;17.780;2023-02-11T03:43:54;29.57;;;3.23;;
17235;SDS011;8734;59.272;17.780;2023-02-11T03:46:26;16.50;;;3.50;;
17235;SDS011;8734;59.272;17.780;2023-02-11T03:49:00;12.03;;;2.87;;
17235;SDS011;8734;59.272;17.780;2023-02-11T03:51:32;11.53;;;3.03;;
17235;SDS011;8734;59.272;17.780;2023-02-11T03:54:03;7.27;;;3.03;;
17235;SDS011;8734;59.272;17.780;2023-02-11T03:56:36;5.23;;;2.27;;
17235;SDS011;8734;59.272;17.780;2023-02-11T03:59:08;5.67;;;2.43;;
17235;SDS011;8734;59.272;17.780;2023-02-11T04:01:36;4.37;;;2.10;;
17235;SDS011;8734;59.272;17.780;2023-02-11T04:04:05;9.20;;;2.37;;
17235;SDS011;8734;59.272;17.780;2023-02-11T04:06:34;7.07;;;1.70;;
17235;SDS011;8734;59.272;17.780;2023-02-11T04:09:03;6.40;;;1.33;;
17235;SDS011;8734;59.272;17.780;2023-02-11T04:11:31;4.03;;;1.03;;
17235;SDS011;8734;59.272;17.780;2023-02-11T04:14:00;4.70;;;1.60;;
17235;SDS011;8734;59.272;17.780;2023-02-11T04:16:28;2.30;;;1.43;;
17235;SDS011;8734;59.272;17.780;2023-02-11T04:18:57;3.37;;;1.40;;
17235;SDS011;8734;59.272;17.780;2023-02-11T04:21:27;4.17;;;1.70;;
17235;SDS011;8734;59.272;17.780;2023-02-11T04:23:56;9.53;;;2.07;;
17235;SDS011;8734;59.272;17.780;2023-02-11T04:26:25;8.67;;;3.00;;
17235;SDS011;8734;59.272;17.780;2023-02-11T04:28:54;7.33;;;2.13;;
17235;SDS011;8734;59.272;17.780;2023-02-11T04:31:22;9.20;;;1.60;;
17235;SDS011;8734;59.272;17.780;2023-02-11T04:33:50;7.70;;;1.73;;
17235;SDS011;8734;59.272;17.780;2023-02-11T04:36:19;4.97;;;1.93;;
17235;SDS011;8734;59.272;17.780;2023-02-11T04:38:47;2.70;;;1.50;;
17235;SDS011;8734;59.272;17.780;2023-02-11T04:41:16;3.97;;;1.53;;
17235;SDS011;8734;59.272;17.780;2023-02-11T04:43:45;5.40;;;1.77;;
17235;SDS011;8734;59.272;17.780;2023-02-11T04:46:13;6.27;;;1.50;;
17235;SDS011;8734;59.272;17.780;2023-02-11T04:48:42;12.37;;;1.63;;
17235;SDS011;8734;59.272;17.780;2023-02-11T04:51:10;4.77;;;2.23;;
17235;SDS011;8734;59.272;17.780;2023-02-11T04:53:39;6.20;;;1.60;;
17235;SDS011;8734;59.272;17.780;2023-02-11T04:56:08;6.27;;;1.83;;
17235;SDS011;8734;59.272;17.780;2023-02-11T04:58:38;10.43;;;1.57;;
17235;SDS011;8734;59.272;17.780;2023-02-11T05:01:06;7.13;;;1.20;;
17235;SDS011;8734;59.272;17.780;2023-02-11T05:03:36;5.77;;;1.37;;
17235;SDS011;8734;59.272;17.780;2023-02-11T05:06:05;4.73;;;1.63;;
17235;SDS011;8734;59.272;17.780;2023-02-11T05:08:33;5.13;;;1.43;;
17235;SDS011;8734;59.272;17.780;2023-02-11T05:11:02;5.50;;;1.93;;
17235;SDS011;8734;59.272;17.780;2023-02-11T05:13:31;12.23;;;1.67;;
17235;SDS011;8734;59.272;17.780;2023-02-11T05:16:01;6.67;;;1.40;;
17235;SDS011;8734;59.272;17.780;2023-02-11T05:18:29;3.70;;;1.30;;
17235;SDS011;8734;59.272;17.780;2023-02-11T05:20:57;5.90;;;1.10;;
17235;SDS011;8734;59.272;17.780;2023-02-11T05:23:25;5.37;;;0.97;;
17235;SDS011;8734;59.272;17.780;2023-02-11T05:25:54;3.87;;;1.10;;
17235;SDS011;8734;59.272;17.780;2023-02-11T05:28:22;3.80;;;1.17;;
17235;SDS011;8734;59.272;17.780;2023-02-11T05:30:51;3.17;;;1.30;;
17235;SDS011;8734;59.272;17.780;2023-02-11T05:33:20;7.20;;;1.00;;
17235;SDS011;8734;59.272;17.780;2023-02-11T05:35:49;2.50;;;0.87;;
17235;SDS011;8734;59.272;17.780;2023-02-11T05:38:18;4.20;;;1.10;;
17235;SDS011;8734;59.272;17.780;2023-02-11T05:40:46;4.67;;;1.03;;
17235;SDS011;8734;59.272;17.780;2023-02-11T05:43:15;2.93;;;1.00;;
17235;SDS011;8734;59.272;17.780;2023-02-11T05:45:43;1.67;;;0.87;;
17235;SDS011;8734;59.272;17.780;2023-02-11T05:48:11;1.07;;;0.63;;
17235;SDS011;8734;59.272;17.780;2023-02-11T05:50:41;1.90;;;0.80;;
17235;SDS011;8734;59.272;17.780;2023-02-11T05:53:09;5.27;;;1.00;;
17235;SDS011;8734;59.272;17.780;2023-02-11T05:55:38;3.87;;;1.20;;
17235;SDS011;8734;59.272;17.780;2023-02-11T05:58:06;1.90;;;0.90;;
17235;SDS011;8734;59.272;17.780;2023-02-11T06:00:35;2.80;;;0.80;;
17235;SDS011;8734;59.272;17.780;2023-02-11T06:03:03;4.47;;;1.20;;
17235;SDS011;8734;59.272;17.780;2023-02-11T06:05:32;3.13;;;1.43;;
17235;SDS011;8734;59.272;17.780;2023-02-11T06:08:02;4.20;;;1.40;;
17235;SDS011;8734;59.272;17.780;2023-02-11T06:10:30;4.93;;;0.70;;
17235;SDS011;8734;59.272;17.780;2023-02-11T06:12:59;6.03;;;0.93;;
17235;SDS011;8734;59.272;17.780;2023-02-11T06:15:28;2.97;;;1.10;;
17235;SDS011;8734;59.272;17.780;2023-02-11T06:17:56;3.83;;;1.23;;
17235;SDS011;8734;59.272;17.780;2023-02-11T06:20:25;6.70;;;1.53;;
17235;SDS011;8734;59.272;17.780;2023-02-11T06:22:53;4.63;;;1.30;;
17235;SDS011;8734;59.272;17.780;2023-02-11T06:25:23;7.03;;;1.20;;
17235;SDS011;8734;59.272;17.780;2023-02-11T06:27:51;7.90;;;2.03;;
17235;SDS011;8734;59.272;17.780;2023-02-11T06:30:20;4.63;;;0.97;;
17235;SDS011;8734;59.272;17.780;2023-02-11T06:32:48;7.80;;;1.33;;
17235;SDS011;8734;59.272;17.780;2023-02-11T06:35:18;9.13;;;1.50;;
17235;SDS011;8734;59.272;17.780;2023-02-11T06:37:46;6.60;;;1.70;;
17235;SDS011;8734;59.272;17.780;2023-02-11T06:40:15;10.47;;;1.53;;
17235;SDS011;8734;59.272;17.780;2023-02-11T06:42:45;7.93;;;1.40;;
17235;SDS011;8734;59.272;17.780;2023-02-11T06:45:13;3.00;;;1.50;;
17235;SDS011;8734;59.272;17.780;2023-02-11T06:47:42;8.33;;;1.23;;
17235;SDS011;8734;59.272;17.780;2023-02-11T06:50:11;3.03;;;1.40;;
17235;SDS011;8734;59.272;17.780;2023-02-11T06:52:40;4.93;;;1.40;;
17235;SDS011;8734;59.272;17.780;2023-02-11T06:55:08;4.47;;;1.57;;
17235;SDS011;8734;59.272;17.780;2023-02-11T06:57:37;4.47;;;1.40;;
17235;SDS011;8734;59.272;17.780;2023-02-11T07:00:07;4.70;;;1.50;;
17235;SDS011;8734;59.272;17.780;2023-02-11T07:02:36;5.63;;;1.67;;
17235;SDS011;8734;59.272;17.780;2023-02-11T07:05:06;8.60;;;1.80;;
17235;SDS011;8734;59.272;17.780;2023-02-11T07:07:34;7.20;;;1.53;;
17235;SDS011;8734;59.272;17.780;2023-02-11T07:10:03;7.70;;;1.30;;
17235;SDS011;8734;59.272;17.780;2023-02-11T07:12:32;3.67;;;1.43;;
17235;SDS011;8734;59.272;17.780;2023-02-11T07:15:01;6.33;;;2.10;;
17235;SDS011;8734;59.272;17.780;2023-02-11T07:17:30;5.70;;;1.40;;
17235;SDS011;8734;59.272;17.780;2023-02-11T07:20:00;9.73;;;2.17;;
17235;SDS011;8734;59.272;17.780;2023-02-11T07:22:28;6.73;;;1.57;;
17235;SDS011;8734;59.272;17.780;2023-02-11T07:24:57;7.33;;;1.40;;
17235;SDS011;8734;59.272;17.780;2023-02-11T07:27:26;9.77;;;1.80;;
17235;SDS011;8734;59.272;17.780;2023-02-11T07:29:54;3.03;;;1.43;;
17235;SDS011;8734;59.272;17.780;2023-02-11T07:32:22;5.67;;;1.80;;
17235;SDS011;8734;59.272;17.780;2023-02-11T07:34:52;6.13;;;2.10;;
17235;SDS011;8734;59.272;17.780;2023-02-11T07:37:20;10.27;;;1.90;;
17235;SDS011;8734;59.272;17.780;2023-02-11T07:39:49;7.33;;;1.60;;
17235;SDS011;8734;59.272;17.780;2023-02-11T07:42:17;5.93;;;1.63;;
17235;SDS011;8734;59.272;17.780;2023-02-11T07:44:45;5.60;;;1.83;;
17235;SDS011;8734;59.272;17.780;2023-02-11T07:47:16;4.53;;;1.73;;
17235;SDS011;8734;59.272;17.780;2023-02-11T07:49:44;10.43;;;2.00;;
17235;SDS011;8734;59.272;17.780;2023-02-11T07:52:14;13.13;;;2.27;;
17235;SDS011;8734;59.272;17.780;2023-02-11T07:54:42;7.47;;;2.00;;
17235;SDS011;8734;59.272;17.780;2023-02-11T07:57:12;2.90;;;1.60;;
17235;SDS011;8734;59.272;17.780;2023-02-11T07:59:40;9.30;;;2.00;;
17235;SDS011;8734;59.272;17.780;2023-02-11T08:02:08;7.23;;;2.00;;
17235;SDS011;8734;59.272;17.780;2023-02-11T08:04:37;6.67;;;2.27;;
17235;SDS011;8734;59.272;17.780;2023-02-11T08:07:05;4.67;;;1.83;;
17235;SDS011;8734;59.272;17.780;2023-02-11T08:09:35;5.77;;;1.80;;
17235;SDS011;8734;59.272;17.780;2023-02-11T08:12:03;4.57;;;1.67;;
17235;SDS011;8734;59.272;17.780;2023-02-11T08:14:32;7.50;;;2.43;;
17235;SDS011;8734;59.272;17.780;2023-02-11T08:17:00;8.27;;;2.40;;
17235;SDS011;8734;59.272;17.780;2023-02-11T08:19:29;2.60;;;1.40;;
17235;SDS011;8734;59.272;17.780;2023-02-11T08:22:00;5.50;;;1.80;;
17235;SDS011;8734;59.272;17.780;2023-02-11T08:24:28;6.60;;;2.27;;
17235;SDS011;8734;59.272;17.780;2023-02-11T08:26:58;12.23;;;2.10;;
17235;SDS011;8734;59.272;17.780;2023-02-11T08:29:26;14.83;;;2.43;;
17235;SDS011;8734;59.272;17.780;2023-02-11T08:31:54;4.27;;;2.63;;
17235;SDS011;8734;59.272;17.780;2023-02-11T08:34:23;7.83;;;2.63;;
17235;SDS011;8734;59.272;17.780;2023-02-11T08:36:51;8.00;;;1.90;;
17235;SDS011;8734;59.272;17.780;2023-02-11T08:39:19;8.17;;;1.57;;
17235;SDS011;8734;59.272;17.780;2023-02-11T08:41:49;10.23;;;2.53;;
17235;SDS011;8734;59.272;17.780;2023-02-11T08:44:20;7.47;;;2.47;;
17235;SDS011;8734;59.272;17.780;2023-02-11T08:46:50;7.93;;;2.00;;
17235;SDS011;8734;59.272;17.780;2023-02-11T08:49:19;9.20;;;2.00;;
17235;SDS011;8734;59.272;17.780;2023-02-11T08:51:50;6.73;;;1.77;;
17235;SDS011;8734;59.272;17.780;2023-02-11T08:54:19;6.67;;;2.00;;
17235;SDS011;8734;59.272;17.780;2023-02-11T08:56:49;5.90;;;2.20;;
17235;SDS011;8734;59.272;17.780;2023-02-11T08:59:19;8.17;;;3.83;;
17235;SDS011;8734;59.272;17.780;2023-02-11T09:01:48;6.37;;;1.67;;
17235;SDS011;8734;59.272;17.780;2023-02-11T09:04:16;17.00;;;7.93;;
17235;SDS011;8734;59.272;17.780;2023-02-11T09:06:44;51.43;;;18.97;;
17235;SDS011;8734;59.272;17.780;2023-02-11T09:09:14;30.20;;;7.87;;
17235;SDS011;8734;59.272;17.780;2023-02-11T09:11:42;13.47;;;2.90;;
17235;SDS011;8734;59.272;17.780;2023-02-11T09:14:14;15.00;;;6.03;;
17235;SDS011;8734;59.272;17.780;2023-02-11T09:16:46;12.00;;;2.20;;
17235;SDS011;8734;59.272;17.780;2023-02-11T09:19:15;6.00;;;1.80;;
17235;SDS011;8734;59.272;17.780;2023-02-11T09:21:44;9.23;;;2.87;;
17235;SDS011;8734;59.272;17.780;2023-02-11T09:24:13;5.70;;;1.87;;
17235;SDS011;8734;59.272;17.780;2023-02-11T09:26:41;11.97;;;3.30;;
17235;SDS011;8734;59.272;17.780;2023-02-11T09:29:10;16.03;;;5.20;;
17235;SDS011;8734;59.272;17.780;2023-02-11T09:31:39;10.47;;;2.97;;
17235;SDS011;8734;59.272;17.780;2023-02-11T09:34:09;10.20;;;4.40;;
17235;SDS011;8734;59.272;17.780;2023-02-11T09:36:38;7.33;;;2.50;;
17235;SDS011;8734;59.272;17.780;2023-02-11T09:39:08;8.13;;;2.53;;
17235;SDS011;8734;59.272;17.780;2023-02-11T09:44:59;6.50;;;2.67;;
17235;SDS011;8734;59.272;17.780;2023-02-11T09:47:29;9.97;;;2.43;;
17235;SDS011;8734;59.272;17.780;2023-02-11T09:50:01;8.27;;;3.40;;
17235;SDS011;8734;59.272;17.780;2023-02-11T09:52:34;24.63;;;8.73;;
17235;SDS011;8734;59.272;17.780;2023-02-11T09:55:10;36.60;;;13.67;;
17235;SDS011;8734;59.272;17.780;2023-02-11T09:57:45;20.47;;;9.33;;
17235;SDS011;8734;59.272;17.780;2023-02-11T10:00:20;13.07;;;4.20;;
17235;SDS011;8734;59.272;17.780;2023-02-11T10:02:56;22.03;;;5.37;;
17235;SDS011;8734;59.272;17.780;2023-02-11T10:05:40;36.53;;;12.83;;
17235;SDS011;8734;59.272;17.780;2023-02-11T10:08:19;10.40;;;2.97;;
17235;SDS011;8734;59.272;17.780;2023-02-11T10:10:57;14.40;;;4.73;;
17235;SDS011;8734;59.272;17.780;2023-02-11T10:13:34;14.17;;;5.47;;
17235;SDS011;8734;59.272;17.780;2023-02-11T10:16:15;24.33;;;8.73;;
17235;SDS011;8734;59.272;17.780;2023-02-11T10:19:05;16.47;;;4.93;;
17235;SDS011;8734;59.272;17.780;2023-02-11T10:21:46;77.73;;;26.67;;
17235;SDS011;8734;59.272;17.780;2023-02-11T10:24:24;13.23;;;3.53;;
17235;SDS011;8734;59.272;17.780;2023-02-11T10:26:54;8.00;;;2.13;;
17235;SDS011;8734;59.272;17.780;2023-02-11T10:29:30;9.37;;;3.20;;
17235;SDS011;8734;59.272;17.780;2023-02-11T10:32:04;18.53;;;4.43;;
17235;SDS011;8734;59.272;17.780;2023-02-11T10:34:41;12.40;;;3.67;;
17235;SDS011;8734;59.272;17.780;2023-02-11T10:37:11;9.50;;;3.07;;
17235;SDS011;8734;59.272;17.780;2023-02-11T10:39:41;20.93;;;9.60;;
17235;SDS011;8734;59.272;17.780;2023-02-11T10:42:09;34.70;;;11.43;;
17235;SDS011;8734;59.272;17.780;2023-02-11T10:44:41;29.53;;;11.60;;
17235;SDS011;8734;59.272;17.780;2023-02-11T10:47:18;25.37;;;10.17;;
17235;SDS011;8734;59.272;17.780;2023-02-11T10:49:49;28.23;;;10.40;;
17235;SDS011;8734;59.272;17.780;2023-02-11T10:52:20;17.90;;;5.00;;
17235;SDS011;8734;59.272;17.780;2023-02-11T10:54:57;31.03;;;11.03;;
17235;SDS011;8734;59.272;17.780;2023-02-11T10:57:29;9.57;;;2.33;;
17235;SDS011;8734;59.272;17.780;2023-02-11T11:00:03;7.87;;;2.20;;
17235;SDS011;8734;59.272;17.780;2023-02-11T11:02:35;10.10;;;2.50;;
17235;SDS011;8734;59.272;17.780;2023-02-11T11:05:14;8.37;;;2.00;;
17235;SDS011;8734;59.272;17.780;2023-02-11T11:07:52;15.10;;;3.03;;
17235;SDS011;8734;59.272;17.780;2023-02-11T11:10:26;6.17;;;2.13;;
17235;SDS011;8734;59.272;17.780;2023-02-11T11:12:56;7.13;;;3.37;;
17235;SDS011;8734;59.272;17.780;2023-02-11T11:15:25;10.83;;;2.17;;
17235;SDS011;8734;59.272;17.780;2023-02-11T11:18:12;13.57;;;2.07;;
17235;SDS011;8734;59.272;17.780;2023-02-11T11:20:54;8.90;;;2.67;;
17235;SDS011;8734;59.272;17.780;2023-02-11T11:23:27;9.50;;;2.07;;
17235;SDS011;8734;59.272;17.780;2023-02-11T11:25:59;7.33;;;2.37;;
17235;SDS011;8734;59.272;17.780;2023-02-11T11:28:31;12.90;;;4.20;;
17235;SDS011;8734;59.272;17.780;2023-02-11T11:31:04;7.73;;;3.10;;
17235;SDS011;8734;59.272;17.780;2023-02-11T11:33:39;2.47;;;1.30;;
17235;SDS011;8734;59.272;17.780;2023-02-11T11:36:10;6.33;;;2.13;;
17235;SDS011;8734;59.272;17.780;2023-02-11T11:38:43;18.47;;;2.60;;
17235;SDS011;8734;59.272;17.780;2023-02-11T11:41:17;5.97;;;1.90;;
17235;SDS011;8734;59.272;17.780;2023-02-11T11:44:01;10.60;;;2.70;;
17235;SDS011;8734;59.272;17.780;2023-02-11T11:46:32;9.90;;;3.70;;
17235;SDS011;8734;59.272;17.780;2023-02-11T11:49:03;6.73;;;2.20;;
17235;SDS011;8734;59.272;17.780;2023-02-11T11:51:40;4.53;;;2.13;;
17235;SDS011;8734;59.272;17.780;2023-02-11T11:54:14;9.17;;;1.27;;
17235;SDS011;8734;59.272;17.780;2023-02-11T11:56:49;7.23;;;2.10;;
17235;SDS011;8734;59.272;17.780;2023-02-11T11:59:21;15.57;;;4.23;;
17235;SDS011;8734;59.272;17.780;2023-02-11T12:01:57;8.70;;;2.20;;
17235;SDS011;8734;59.272;17.780;2023-02-11T12:04:46;10.50;;;3.50;;
17235;SDS011;8734;59.272;17.780;2023-02-11T12:07:28;7.33;;;1.50;;
17235;SDS011;8734;59.272;17.780;2023-02-11T12:10:22;5.37;;;2.07;;
17235;SDS011;8734;59.272;17.780;2023-02-11T12:13:01;7.50;;;2.00;;
17235;SDS011;8734;59.272;17.780;2023-02-11T12:15:42;5.93;;;1.60;;
17235;SDS011;8734;59.272;17.780;2023-02-11T12:18:31;10.17;;;1.97;;
17235;SDS011;8734;59.272;17.780;2023-02-11T12:21:22;8.93;;;2.90;;
17235;SDS011;8734;59.272;17.780;2023-02-11T12:24:10;10.57;;;2.50;;
17235;SDS011;8734;59.272;17.780;2023-02-11T12:26:58;9.63;;;2.00;;
17235;SDS011;8734;59.272;17.780;2023-02-11T12:29:34;13.13;;;4.03;;
17235;SDS011;8734;59.272;17.780;2023-02-11T12:32:09;19.13;;;7.90;;
17235;SDS011;8734;59.272;17.780;2023-02-11T12:35:03;16.43;;;6.20;;
17235;SDS011;8734;59.272;17.780;2023-02-11T12:37:41;7.97;;;3.03;;
17235;SDS011;8734;59.272;17.780;2023-02-11T12:40:17;13.50;;;2.10;;
17235;SDS011;8734;59.272;17.780;2023-02-11T12:42:58;11.60;;;2.17;;
17235;SDS011;8734;59.272;17.780;2023-02-11T12:48:54;11.37;;;3.07;;
17235;SDS011;8734;59.272;17.780;2023-02-11T12:51:39;5.70;;;1.87;;
17235;SDS011;8734;59.272;17.780;2023-02-11T12:54:27;8.30;;;1.90;;
17235;SDS011;8734;59.272;17.780;2023-02-11T12:56:59;6.17;;;2.10;;
17235;SDS011;8734;59.272;17.780;2023-02-11T12:59:37;9.07;;;3.40;;
17235;SDS011;8734;59.272;17.780;2023-02-11T13:02:14;6.50;;;1.70;;
17235;SDS011;8734;59.272;17.780;2023-02-11T13:04:48;14.80;;;1.70;;
17235;SDS011;8734;59.272;17.780;2023-02-11T13:07:22;7.60;;;1.83;;
17235;SDS011;8734;59.272;17.780;2023-02-11T13:09:55;9.73;;;2.13;;
17235;SDS011;8734;59.272;17.780;2023-02-11T13:12:30;11.23;;;1.47;;
17235;SDS011;8734;59.272;17.780;2023-02-11T13:15:19;11.47;;;3.10;;
17235;SDS011;8734;59.272;17.780;2023-02-11T13:17:52;6.67;;;1.80;;
17235;SDS011;8734;59.272;17.780;2023-02-11T13:20:30;12.57;;;5.00;;
17235;SDS011;8734;59.272;17.780;2023-02-11T13:23:04;10.83;;;1.47;;
17235;SDS011;8734;59.272;17.780;2023-02-11T13:25:40;5.47;;;1.47;;
17235;SDS011;8734;59.272;17.780;2023-02-11T13:28:24;6.73;;;2.00;;
17235;SDS011;8734;59.272;17.780;2023-02-11T13:31:03;6.20;;;2.43;;
17235;SDS011;8734;59.272;17.780;2023-02-11T13:33:34;11.10;;;2.53;;
17235;SDS011;8734;59.272;17.780;2023-02-11T13:39:00;17.63;;;2.00;;
17235;SDS011;8734;59.272;17.780;2023-02-11T13:41:33;11.23;;;1.73;;
17235;SDS011;8734;59.272;17.780;2023-02-11T13:44:12;10.10;;;1.60;;
17235;SDS011;8734;59.272;17.780;2023-02-11T13:46:53;4.40;;;1.40;;
17235;SDS011;8734;59.272;17.780;2023-02-11T13:49:26;9.63;;;1.50;;
17235;SDS011;8734;59.272;17.780;2023-02-11T13:52:03;7.93;;;1.13;;
17235;SDS011;8734;59.272;17.780;2023-02-11T13:54:33;4.43;;;1.30;;
17235;SDS011;8734;59.272;17.780;2023-02-11T13:59:58;3.27;;;1.37;;
17235;SDS011;8734;59.272;17.780;2023-02-11T14:02:31;4.57;;;1.17;;
17235;SDS011;8734;59.272;17.780;2023-02-11T14:05:23;6.90;;;1.70;;
17235;SDS011;8734;59.272;17.780;2023-02-11T14:08:14;4.47;;;1.30;;
17235;SDS011;8734;59.272;17.780;2023-02-11T14:11:07;3.63;;;1.13;;
17235;SDS011;8734;59.272;17.780;2023-02-11T14:20:00;4.60;;;1.47;;
17235;SDS011;8734;59.272;17.780;2023-02-11T14:22:38;7.33;;;1.50;;
17235;SDS011;8734;59.272;17.780;2023-02-11T14:25:15;11.67;;;1.67;;
17235;SDS011;8734;59.272;17.780;2023-02-11T14:27:49;3.87;;;1.33;;
17235;SDS011;8734;59.272;17.780;2023-02-11T14:30:28;5.43;;;1.47;;
17235;SDS011;8734;59.272;17.780;2023-02-11T14:33:15;5.80;;;1.60;;
17235;SDS011;8734;59.272;17.780;2023-02-11T14:36:00;5.50;;;1.37;;
17235;SDS011;8734;59.272;17.780;2023-02-11T14:38:39;5.73;;;1.43;;
17235;SDS011;8734;59.272;17.780;2023-02-11T14:41:17;6.93;;;1.60;;
17235;SDS011;8734;59.272;17.780;2023-02-11T14:43:50;4.83;;;1.50;;
17235;SDS011;8734;59.272;17.780;2023-02-11T14:46:22;9.70;;;1.10;;
17235;SDS011;8734;59.272;17.780;2023-02-11T14:48:55;7.83;;;1.60;;
17235;SDS011;8734;59.272;17.780;2023-02-11T14:51:27;6.03;;;1.47;;
17235;SDS011;8734;59.272;17.780;2023-02-11T14:53:58;5.10;;;1.53;;
17235;SDS011;8734;59.272;17.780;2023-02-11T14:56:31;3.17;;;1.50;;
17235;SDS011;8734;59.272;17.780;2023-02-11T14:59:00;7.20;;;1.90;;
17235;SDS011;8734;59.272;17.780;2023-02-11T15:01:29;4.90;;;1.27;;
17235;SDS011;8734;59.272;17.780;2023-02-11T15:04:02;4.23;;;1.10;;
17235;SDS011;8734;59.272;17.780;2023-02-11T15:06:33;7.13;;;1.80;;
17235;SDS011;8734;59.272;17.780;2023-02-11T15:09:04;6.77;;;2.00;;
17235;SDS011;8734;59.272;17.780;2023-02-11T15:11:41;13.77;;;1.67;;
17235;SDS011;8734;59.272;17.780;2023-02-11T15:14:15;3.60;;;1.50;;
17235;SDS011;8734;59.272;17.780;2023-02-11T15:16:49;11.60;;;1.67;;
17235;SDS011;8734;59.272;17.780;2023-02-11T15:19:22;4.43;;;1.53;;
17235;SDS011;8734;59.272;17.780;2023-02-11T15:21:59;6.07;;;1.60;;
17235;SDS011;8734;59.272;17.780;2023-02-11T15:24:28;8.03;;;1.60;;
17235;SDS011;8734;59.272;17.780;2023-02-11T15:26:59;5.87;;;1.30;;
17235;SDS011;8734;59.272;17.780;2023-02-11T15:29:33;3.03;;;1.30;;
17235;SDS011;8734;59.272;17.780;2023-02-11T15:32:04;8.77;;;1.70;;
17235;SDS011;8734;59.272;17.780;2023-02-11T15:34:35;9.03;;;1.87;;
17235;SDS011;8734;59.272;17.780;2023-02-11T15:37:03;4.20;;;1.60;;
17235;SDS011;8734;59.272;17.780;2023-02-11T15:39:33;3.57;;;1.40;;